Time;durP1;ratioP1;P1;durP2;ratioP2;P2;SDS_P1;SDS_P2;PMS_P1;PMS_P2;Temp;Humidity;BMP_temperature;BMP_pressure;BME280_temperature;BME280_humidity;BME280_pressure;Samples;Min_cycle;Max_cycle;Signal;HPM_P1;HPM_P2
2021/11/10 00:00:54;;;;;;;34.70;25.05;;;;;;;5.77;88.73;101578.73;2808040;83;21087;-77
2021/11/10 00:04:56;;;;;;;37.30;25.23;;;;;;;5.66;89.51;101576.09;2797125;85;20992;-80
2021/11/10 00:08:57;;;;;;;51.30;28.83;;;;;;;5.72;89.46;101572.34;2796641;84;21008;-80
2021/11/10 00:17:19;;;;;;;40.43;25.23;;;;;;;5.65;88.52;101569.53;2808154;84;21063;-80
2021/11/10 00:21:22;;;;;;;48.17;28.83;;;;;;;5.59;88.20;101569.31;2808246;85;21067;-80
2021/11/10 00:25:24;;;;;;;40.98;25.37;;;;;;;5.51;88.50;101555.14;2805745;83;21066;-78
2021/11/10 00:29:26;;;;;;;45.80;27.98;;;;;;;5.44;88.61;101552.33;2845493;83;21055;-80
2021/11/10 00:33:28;;;;;;;41.65;25.25;;;;;;;5.40;89.52;101545.45;2845625;83;20964;-79
2021/11/10 00:37:29;;;;;;;46.23;28.12;;;;;;;5.39;89.97;101546.38;2837937;83;21051;-80
2021/11/10 00:41:31;;;;;;;49.88;31.55;;;;;;;5.42;90.37;101546.25;2836465;83;21099;-81
2021/11/10 00:45:33;;;;;;;53.00;28.70;;;;;;;5.42;90.01;101532.61;2858335;83;21002;-77
2021/11/10 00:49:34;;;;;;;43.42;28.12;;;;;;;5.45;89.93;101527.65;2857269;83;21070;-80
2021/11/10 00:53:36;;;;;;;35.63;24.18;;;;;;;5.42;90.12;101527.78;2870507;82;20982;-77
2021/11/10 00:57:38;;;;;;;40.92;26.00;;;;;;;5.36;90.48;101531.99;2870319;83;21074;-79
2021/11/10 01:01:39;;;;;;;43.25;29.80;;;;;;;5.40;90.19;101530.95;2870594;82;21050;-79
2021/11/10 01:05:42;;;;;;;39.92;28.02;;;;;;;5.41;89.82;101522.10;2870556;82;20960;-79
2021/11/10 01:09:45;;;;;;;43.28;27.70;;;;;;;5.36;89.12;101528.87;2870412;82;21036;-77
2021/11/10 01:13:47;;;;;;;45.20;29.18;;;;;;;5.29;89.55;101518.18;2870648;81;21058;-78
2021/11/10 01:17:48;;;;;;;37.30;26.97;;;;;;;5.34;89.66;101506.13;2870401;82;20999;-77
2021/11/10 01:21:50;;;;;;;37.93;27.95;;;;;;;5.32;89.27;101511.94;2870603;82;21014;-78
2021/11/10 01:25:52;;;;;;;44.55;28.27;;;;;;;5.28;89.36;101500.16;2870379;82;21043;-78
2021/11/10 01:29:54;;;;;;;47.15;27.20;;;;;;;5.23;88.98;101498.66;2869320;81;21054;-78
2021/11/10 01:33:55;;;;;;;41.90;26.52;;;;;;;5.19;89.41;101493.07;2869581;81;21019;-78
2021/11/10 01:37:57;;;;;;;44.45;29.15;;;;;;;5.12;89.84;101493.80;2869259;82;21023;-78
2021/11/10 01:42:04;;;;;;;42.98;27.95;;;;;;;5.04;89.73;101495.42;2869700;82;21035;-78
2021/11/10 01:46:06;;;;;;;39.23;27.37;;;;;;;4.96;89.57;101489.57;2869915;82;21107;-78
2021/11/10 01:50:12;;;;;;;44.35;28.45;;;;;;;4.86;89.02;101479.84;2869579;83;20960;-79
2021/11/10 01:54:14;;;;;;;;;;;;;;;4.81;89.26;101485.28;2827807;83;21060;-79
2021/11/10 01:58:15;;;;;;;46.15;28.20;;;;;;;4.73;89.52;101479.45;2789251;84;20179;-78
2021/11/10 02:02:27;;;;;;;36.58;25.75;;;;;;;4.69;89.28;101467.32;2803022;81;21011;-75
2021/11/10 02:06:24;;;;;;;46.35;27.70;;;;;;;4.67;89.32;101463.41;2794770;83;20996;-75
2021/11/10 02:10:27;;;;;;;43.23;24.27;;;;;;;4.68;89.32;101461.17;2795863;83;21754;-75
2021/11/10 02:14:29;;;;;;;33.95;23.65;;;;;;;4.61;90.21;101446.52;2795669;85;21028;-79
2021/11/10 02:18:31;;;;;;;34.65;23.22;;;;;;;4.51;90.96;101453.05;2795024;85;21095;-79
2021/11/10 02:22:33;;;;;;;41.45;26.20;;;;;;;4.47;91.12;101444.86;2794913;85;21052;-77
2021/11/10 02:26:35;;;;;;;35.68;21.75;;;;;;;4.47;90.89;101440.47;2791407;83;21059;-78
2021/11/10 02:30:36;;;;;;;44.75;26.70;;;;;;;4.43;91.07;101438.87;2782797;85;20997;-78
2021/11/10 02:34:40;;;;;;;33.38;23.77;;;;;;;4.52;90.54;101444.22;2783021;85;21092;-78
2021/11/10 02:38:43;;;;;;;36.35;24.95;;;;;;;4.62;89.89;101441.65;2782518;85;21115;-77
2021/11/10 02:42:45;;;;;;;38.17;22.55;;;;;;;4.68;88.65;101434.81;2782963;84;21016;-76
2021/11/10 02:46:50;;;;;;;38.50;24.30;;;;;;;4.77;88.52;101434.08;2782949;85;21110;-76
2021/11/10 02:50:52;;;;;;;36.95;26.82;;;;;;;4.82;87.24;101430.34;2783302;85;21031;-75
2021/11/10 02:54:54;;;;;;;42.53;30.27;;;;;;;4.81;87.07;101425.12;2783130;85;21008;-78
2021/11/10 02:58:56;;;;;;;43.70;28.62;;;;;;;4.80;87.33;101428.20;2782993;85;21040;-75
2021/11/10 03:02:58;;;;;;;48.25;29.42;;;;;;;4.74;87.67;101428.92;2783181;85;21349;-76
2021/11/10 03:07:01;;;;;;;63.13;33.88;;;;;;;4.73;87.69;101424.58;2783098;85;21023;-74
2021/11/10 03:11:03;;;;;;;58.98;34.83;;;;;;;4.70;87.65;101420.27;2783873;85;21028;-75
2021/11/10 03:15:06;;;;;;;50.60;31.55;;;;;;;4.64;87.99;101417.88;2791790;85;21087;-76
2021/11/10 03:19:08;;;;;;;41.35;27.75;;;;;;;4.65;88.12;101425.72;2790774;85;21300;-78
2021/11/10 03:23:10;;;;;;;42.83;26.35;;;;;;;4.67;88.05;101420.39;2792019;84;21059;-75
2021/11/10 03:27:12;;;;;;;48.13;24.85;;;;;;;4.68;87.86;101416.84;2792570;84;21019;-75
2021/11/10 03:31:14;;;;;;;35.28;22.32;;;;;;;4.66;87.53;101416.88;2793117;84;21028;-76
2021/11/10 03:35:16;;;;;;;38.17;23.95;;;;;;;4.66;87.19;101413.41;2793032;85;21028;-76
2021/11/10 03:39:18;;;;;;;34.80;23.50;;;;;;;4.45;87.39;101417.27;2792963;85;21075;-75
2021/11/10 03:43:20;;;;;;;36.85;25.90;;;;;;;4.31;88.35;101413.81;2792679;85;20996;-76
2021/11/10 03:47:22;;;;;;;37.90;26.20;;;;;;;4.28;88.51;101409.54;2792817;85;21024;-76
2021/11/10 03:51:26;;;;;;;39.78;24.82;;;;;;;4.35;88.51;101410.62;2793079;84;21028;-75
2021/11/10 03:55:40;;;;;;;34.13;24.80;;;;;;;4.39;87.90;101407.81;2793024;85;21088;-75
2021/11/10 03:59:42;;;;;;;38.33;25.02;;;;;;;4.37;87.62;101408.34;2792962;85;21023;-76
2021/11/10 04:03:44;;;;;;;37.55;24.27;;;;;;;4.33;87.59;101412.02;2790884;85;21020;-82
2021/11/10 04:07:46;;;;;;;39.92;24.57;;;;;;;4.36;87.37;101405.75;2792393;83;21505;-73
2021/11/10 04:11:48;;;;;;;44.63;26.12;;;;;;;4.34;86.86;101405.83;2797561;84;21020;-80
2021/11/10 04:15:50;;;;;;;47.80;26.73;;;;;;;4.24;86.80;101396.09;2793230;85;21004;-79
2021/11/10 04:19:52;;;;;;;47.08;25.85;;;;;;;4.20;86.99;101400.20;2793327;84;21035;-80
2021/11/10 04:23:56;;;;;;;39.40;22.30;;;;;;;4.13;87.00;101398.25;2789046;85;21044;-80
2021/11/10 04:27:58;;;;;;;36.85;23.57;;;;;;;4.08;86.71;101394.94;2773997;85;21008;-87
2021/11/10 04:32:00;;;;;;;35.05;21.85;;;;;;;3.95;86.27;101391.42;2756755;85;21138;-83
2021/11/10 04:36:02;;;;;;;38.48;21.90;;;;;;;3.91;86.89;101387.19;2768301;84;21103;-87
2021/11/10 04:40:06;;;;;;;33.13;21.95;;;;;;;3.95;87.87;101397.17;2790547;83;21071;-84
2021/11/10 04:44:08;;;;;;;25.77;16.50;;;;;;;3.98;88.36;101393.10;2782471;85;21058;-81
2021/11/10 04:48:09;;;;;;;32.38;21.68;;;;;;;3.81;89.05;101380.09;2787144;85;21039;-86
2021/11/10 04:52:12;;;;;;;27.77;16.73;;;;;;;3.83;89.17;101372.11;2745526;86;21012;-87
2021/11/10 04:56:14;;;;;;;22.13;15.83;;;;;;;3.69;90.16;101371.30;2745223;86;21032;-84
2021/11/10 05:00:16;;;;;;;26.42;16.20;;;;;;;3.80;90.28;101365.20;2780580;85;21091;-79
2021/11/10 05:04:18;;;;;;;25.57;14.63;;;;;;;3.99;89.86;101365.86;2773831;85;21082;-86
2021/11/10 05:08:21;;;;;;;20.35;14.58;;;;;;;4.31;88.56;101347.95;2764047;85;21517;-86
2021/11/10 05:12:22;;;;;;;26.65;14.70;;;;;;;4.52;87.83;101337.50;2792856;85;21004;-83
2021/11/10 05:16:24;;;;;;;19.40;12.43;;;;;;;4.58;86.91;101321.47;2782838;84;21016;-86
2021/11/10 05:20:26;;;;;;;25.35;15.48;;;;;;;4.59;86.57;101307.37;2791188;85;21551;-85
2021/11/10 05:24:28;;;;;;;23.52;16.60;;;;;;;4.52;86.58;101296.66;2790938;84;20960;-84
2021/11/10 05:28:30;;;;;;;31.65;18.70;;;;;;;4.55;86.35;101304.47;2810546;83;21577;-86
2021/11/10 05:32:32;;;;;;;23.30;15.25;;;;;;;4.62;85.27;101293.19;2815901;84;21084;-81
2021/11/10 05:36:33;;;;;;;23.83;14.38;;;;;;;4.32;85.95;101294.83;2769833;85;21012;-84
2021/11/10 05:40:36;;;;;;;20.88;13.88;;;;;;;4.28;86.12;101298.03;2794693;84;21057;-81
2021/11/10 05:44:38;;;;;;;21.33;13.32;;;;;;;4.49;86.84;101277.02;2809729;84;21093;-80
2021/11/10 05:48:40;;;;;;;16.93;9.53;;;;;;;4.91;86.49;101262.98;2735884;85;21061;-84
2021/11/10 05:52:43;;;;;;;14.87;9.50;;;;;;;5.23;85.65;101257.27;2742318;86;21047;-83
2021/11/10 05:56:47;;;;;;;18.90;11.70;;;;;;;5.54;85.33;101262.48;2785843;85;21074;-86
2021/11/10 06:00:50;;;;;;;20.37;12.20;;;;;;;5.72;85.24;101264.77;2785907;85;21016;-86
2021/11/10 06:04:52;;;;;;;15.00;10.45;;;;;;;5.91;84.84;101280.59;2785825;85;21594;-84
2021/11/10 06:08:54;;;;;;;16.25;12.30;;;;;;;6.11;83.71;101277.08;2785920;85;21014;-83
2021/11/10 06:12:56;;;;;;;10.80;8.93;;;;;;;6.29;83.13;101273.16;2786449;85;21533;-81
2021/11/10 06:16:57;;;;;;;15.00;9.48;;;;;;;6.41;82.95;101279.16;2786385;85;21114;-84
2021/11/10 06:21:02;;;;;;;13.83;9.50;;;;;;;6.53;82.35;101284.80;2786206;84;21364;-86
2021/11/10 06:25:06;;;;;;;18.07;9.13;;;;;;;6.51;82.49;101278.73;2786497;85;21128;-84
2021/11/10 06:29:08;;;;;;;15.32;10.48;;;;;;;6.61;81.90;101274.69;2786568;85;21022;-83
2021/11/10 06:33:09;;;;;;;14.87;10.30;;;;;;;6.76;81.93;101281.47;2786552;83;21074;-84
2021/11/10 06:37:11;;;;;;;10.80;9.63;;;;;;;6.69;82.05;101275.18;2787404;85;21002;-81
2021/11/10 06:41:18;;;;;;;10.35;9.35;;;;;;;6.78;82.12;101263.73;2787726;85;21031;-86
2021/11/10 06:45:19;;;;;;;13.55;8.75;;;;;;;6.94;81.93;101277.91;2787508;84;20995;-84
2021/11/10 06:49:20;;;;;;;12.37;8.15;;;;;;;7.17;81.42;101285.13;2787392;85;21011;-78
2021/11/10 06:53:22;;;;;;;21.33;9.63;;;;;;;7.28;81.10;101285.89;2788507;84;21010;-76
2021/11/10 06:57:25;;;;;;;7.92;6.67;;;;;;;7.49;80.41;101281.73;2788231;85;21077;-81
2021/11/10 07:01:27;;;;;;;14.65;9.45;;;;;;;7.62;79.45;101281.92;2788673;85;21042;-84
2021/11/10 07:05:28;;;;;;;11.80;9.00;;;;;;;7.83;79.37;101287.38;2789281;85;20928;-84
2021/11/10 07:09:30;;;;;;;11.65;8.58;;;;;;;7.97;79.14;101283.14;2789337;85;21007;-84
2021/11/10 07:13:32;;;;;;;15.75;9.65;;;;;;;8.11;78.26;101280.59;2789279;85;21027;-84
2021/11/10 07:17:34;;;;;;;11.70;7.62;;;;;;;8.31;77.71;101281.72;2788864;84;21017;-80
2021/11/10 07:21:36;;;;;;;13.10;7.15;;;;;;;8.48;76.95;101274.16;2789344;85;21038;-83
2021/11/10 07:25:38;;;;;;;10.82;8.13;;;;;;;8.57;76.41;101275.84;2789654;85;21019;-80
2021/11/10 07:29:39;;;;;;;10.72;7.37;;;;;;;8.91;75.65;101282.75;2766964;85;21047;-81
2021/11/10 07:33:41;;;;;;;11.15;8.48;;;;;;;9.13;75.08;101280.52;2839644;84;20969;-82
2021/11/10 07:37:45;;;;;;;10.80;7.75;;;;;;;9.27;74.37;101281.50;2839348;84;21055;-81
2021/11/10 07:41:48;;;;;;;12.40;9.05;;;;;;;9.51;74.11;101286.26;2838359;84;21083;-81
2021/11/10 07:45:58;;;;;;;10.38;8.78;;;;;;;9.65;73.72;101294.23;2838819;84;21059;-81
2021/11/10 07:49:59;;;;;;;9.78;6.40;;;;;;;9.86;73.72;101281.42;2838593;84;20983;-80
2021/11/10 07:54:01;;;;;;;11.12;6.92;;;;;;;9.92;73.22;101284.64;2839956;84;21327;-79
2021/11/10 07:58:02;;;;;;;12.13;8.78;;;;;;;10.12;73.10;101282.02;2839905;84;21607;-79
2021/11/10 08:02:04;;;;;;;11.63;8.93;;;;;;;10.20;72.67;101287.72;2839850;84;21040;-80
2021/11/10 08:06:06;;;;;;;13.25;8.00;;;;;;;10.23;71.59;101270.23;2839963;84;20981;-79
2021/11/10 08:10:10;;;;;;;16.00;8.48;;;;;;;10.33;71.55;101277.14;2839695;83;20999;-76
2021/11/10 08:14:12;;;;;;;9.58;6.40;;;;;;;10.35;70.92;101285.86;2840056;81;21043;-77
2021/11/10 08:18:13;;;;;;;13.05;8.20;;;;;;;10.22;71.43;101287.60;2840090;82;21027;-78
2021/11/10 08:22:15;;;;;;;9.70;7.47;;;;;;;10.22;70.87;101282.28;2839789;82;21023;-79
2021/11/10 08:26:18;;;;;;;8.50;6.42;;;;;;;10.34;71.32;101283.33;2839680;83;20976;-75
2021/11/10 08:30:22;;;;;;;13.38;7.70;;;;;;;10.40;70.88;101279.80;2796147;82;21063;-78
2021/11/10 08:34:23;;;;;;;9.13;7.15;;;;;;;10.51;70.78;101278.25;2766680;86;21070;-78
2021/11/10 08:38:28;;;;;;;8.58;6.12;;;;;;;10.51;70.51;101279.09;2766433;84;21093;-79
2021/11/10 08:42:33;;;;;;;9.70;6.83;;;;;;;10.54;69.74;101285.56;2766579;86;21026;-75
2021/11/10 08:46:35;;;;;;;12.03;7.40;;;;;;;10.60;69.57;101281.63;2766739;84;21283;-74
2021/11/10 08:50:42;;;;;;;9.03;7.12;;;;;;;10.63;68.87;101291.22;2799179;80;21078;-74
2021/11/10 09:03:46;;;;;;;11.97;7.42;;;;;;;10.76;68.18;101278.81;2888433;79;21070;-74
2021/11/10 09:07:48;;;;;;;10.93;8.23;;;;;;;10.85;67.91;101276.02;2939095;80;21041;-73
2021/11/10 09:11:50;;;;;;;8.93;7.55;;;;;;;10.90;68.74;101287.20;2969957;80;21040;-72
2021/11/10 09:15:52;;;;;;;11.25;7.37;;;;;;;10.97;68.04;101278.32;2969902;79;20990;-78
2021/11/10 09:19:54;;;;;;;9.65;7.60;;;;;;;11.02;68.30;101282.02;2970004;80;20978;-77
2021/11/10 09:23:59;;;;;;;14.47;11.70;;;;;;;11.07;68.42;101288.70;2969782;79;20990;-77
2021/11/10 09:28:04;;;;;;;16.45;9.75;;;;;;;11.12;67.05;101281.28;2939174;80;21076;-77
2021/11/10 09:32:10;;;;;;;10.47;6.97;;;;;;;11.15;68.44;101294.84;2970021;79;21247;-76
2021/11/10 09:36:13;;;;;;;9.80;7.62;;;;;;;11.20;67.74;101288.74;2938392;80;20986;-74
2021/11/10 09:40:19;;;;;;;9.03;6.40;;;;;;;11.27;68.00;101290.02;2954455;79;20994;-75
2021/11/10 09:44:26;;;;;;;11.33;8.23;;;;;;;11.31;67.48;101291.13;2918576;80;20986;-75
2021/11/10 09:48:31;;;;;;;9.98;8.08;;;;;;;11.44;67.88;101295.99;2939728;79;21021;-75
2021/11/10 09:52:34;;;;;;;17.40;7.80;;;;;;;11.53;67.76;101285.17;2969765;80;20987;-78
2021/11/10 09:56:38;;;;;;;11.10;7.65;;;;;;;11.57;67.23;101290.66;2939291;80;21338;-73
2021/11/10 10:00:53;;;;;;;12.13;6.92;;;;;;;11.62;66.85;101292.50;2914889;80;21487;-73
2021/11/10 10:04:58;;;;;;;11.18;7.87;;;;;;;11.74;67.49;101280.13;2918481;80;21066;-73
2021/11/10 10:09:01;;;;;;;10.82;7.85;;;;;;;11.85;66.72;101276.22;2884460;82;21021;-75
2021/11/10 10:13:09;;;;;;;8.65;7.10;;;;;;;11.94;66.84;101268.05;2832700;83;21086;-75
2021/11/10 10:17:13;;;;;;;12.07;7.75;;;;;;;11.95;67.07;101271.55;2907111;81;21104;-78
2021/11/10 10:21:18;;;;;;;9.48;7.22;;;;;;;12.01;67.18;101267.16;2884933;80;20951;-75
2021/11/10 10:25:24;;;;;;;14.15;7.40;;;;;;;11.96;66.74;101261.25;2831659;83;21075;-73
2021/11/10 10:29:27;;;;;;;9.58;7.53;;;;;;;11.98;66.51;101273.52;2880757;80;20997;-74
2021/11/10 10:33:35;;;;;;;11.15;7.15;;;;;;;11.99;66.78;101269.89;2830940;83;21073;-73
2021/11/10 10:37:44;;;;;;;13.38;8.78;;;;;;;12.00;66.82;101260.92;2907331;82;21036;-75
2021/11/10 10:41:52;;;;;;;11.55;8.20;;;;;;;12.11;65.63;101252.67;2853962;83;21042;-73
2021/11/10 10:45:59;;;;;;;8.53;6.40;;;;;;;12.22;66.28;101250.05;2810811;83;21000;-72
2021/11/10 10:50:05;;;;;;;10.03;7.58;;;;;;;12.35;66.03;101243.82;2857312;82;21001;-72
2021/11/10 10:54:09;;;;;;;9.97;7.87;;;;;;;12.42;64.60;101235.72;2884183;80;21072;-74
2021/11/10 10:58:37;;;;;;;11.10;6.23;;;;;;;12.52;65.64;101227.88;2884776;82;20962;-73
2021/11/10 11:02:40;;;;;;;9.08;7.33;;;;;;;12.67;65.10;101221.38;2907597;80;21002;-76
2021/11/10 11:06:50;;;;;;;15.75;9.15;;;;;;;12.89;65.02;101212.23;2882436;82;20989;-74
2021/11/10 11:10:58;;;;;;;13.62;8.90;;;;;;;12.86;63.86;101205.29;2907597;80;20978;-73
2021/11/10 11:19:37;;;;;;;11.85;7.28;;;;;;;12.81;63.03;101182.11;2888014;81;21024;-74
2021/11/10 11:23:43;;;;;;;10.13;6.95;;;;;;;12.89;62.91;101179.69;2881334;82;21021;-72
2021/11/10 11:28:10;;;;;;;10.43;7.35;;;;;;;12.97;63.62;101173.28;2858716;82;20962;-77
2021/11/10 11:32:34;;;;;;;8.25;6.72;;;;;;;13.00;63.45;101173.50;2884857;80;21021;-73
2021/11/10 11:36:57;;;;;;;10.08;8.20;;;;;;;13.04;63.42;101166.95;2860463;82;21008;-72
2021/11/10 11:41:02;;;;;;;10.55;7.03;;;;;;;13.03;62.79;101165.75;2883563;82;20966;-73
2021/11/10 11:45:08;;;;;;;10.10;7.15;;;;;;;12.98;62.50;101161.63;2870960;79;21105;-72
2021/11/10 11:49:13;;;;;;;9.55;6.42;;;;;;;13.10;62.75;101157.61;2898296;80;21053;-73
2021/11/10 11:53:16;;;;;;;9.15;7.22;;;;;;;13.16;63.51;101154.44;2915667;79;21006;-71
2021/11/10 11:57:22;;;;;;;10.10;7.95;;;;;;;13.32;63.17;101151.89;2916011;79;20997;-72
2021/11/10 12:01:26;;;;;;;8.63;7.33;;;;;;;13.40;63.30;101147.64;2898210;80;21419;-74
2021/11/10 12:05:29;;;;;;;11.97;8.30;;;;;;;13.43;62.19;101146.08;2915867;80;20979;-73
2021/11/10 12:09:32;;;;;;;9.38;6.72;;;;;;;13.37;61.50;101132.36;2898031;79;21022;-73
2021/11/10 12:13:34;;;;;;;12.78;7.72;;;;;;;13.31;61.95;101132.83;2915618;79;21033;-71
2021/11/10 12:17:57;;;;;;;19.95;14.28;;;;;;;13.37;62.36;101132.36;2935318;78;21028;-73
2021/11/10 12:22:09;;;;;;;12.78;8.50;;;;;;;13.46;62.93;101131.63;2969989;80;21037;-73
2021/11/10 12:26:12;;;;;;;11.78;8.23;;;;;;;13.55;62.27;101129.53;2846171;77;21086;-73
2021/11/10 12:30:29;;;;;;;15.32;7.72;;;;;;;13.62;62.00;101132.56;2894731;82;21013;-72
2021/11/10 12:34:34;;;;;;;8.33;6.62;;;;;;;13.67;61.61;101128.19;2894477;81;21052;-73
2021/11/10 12:38:37;;;;;;;7.72;6.87;;;;;;;13.72;61.39;101116.62;2894685;81;21018;-72
2021/11/10 12:43:07;;;;;;;8.35;6.58;;;;;;;13.75;60.78;101115.02;2894583;81;21084;-73
2021/11/10 12:47:10;;;;;;;8.50;6.90;;;;;;;13.81;60.96;101114.55;2894513;81;21083;-75
2021/11/10 12:51:27;;;;;;;9.58;6.97;;;;;;;13.85;60.97;101107.95;2895202;82;21006;-75
2021/11/10 12:55:33;;;;;;;9.60;7.08;;;;;;;13.85;60.76;101112.44;2895250;81;21021;-73
2021/11/10 12:59:49;;;;;;;10.63;8.20;;;;;;;13.78;60.06;101096.55;2894506;81;21065;-72
2021/11/10 13:03:53;;;;;;;11.83;7.87;;;;;;;13.73;60.69;101104.95;2864291;81;21071;-73
2021/11/10 13:08:08;;;;;;;8.20;6.95;;;;;;;13.62;60.33;101103.16;2881694;81;21039;-73
2021/11/10 13:12:13;;;;;;;12.93;8.58;;;;;;;13.46;60.44;101104.91;2920769;81;20980;-72
2021/11/10 13:16:14;;;;;;;12.50;8.80;;;;;;;13.33;60.95;101110.37;2920823;81;21393;-72
2021/11/10 13:20:20;;;;;;;17.12;13.50;;;;;;;13.16;61.56;101102.35;2920748;80;21015;-72
2021/11/10 13:24:26;;;;;;;13.38;9.45;;;;;;;12.87;62.12;101098.85;2920695;80;20944;-73
2021/11/10 13:28:28;;;;;;;10.63;8.95;;;;;;;12.81;62.28;101102.02;2920878;80;21027;-73
2021/11/10 13:36:40;;;;;;;11.35;8.43;;;;;;;12.56;62.85;101093.23;2895963;81;21105;-74
2021/11/10 13:40:41;;;;;;;21.87;13.60;;;;;;;12.40;63.81;101081.09;2898466;82;21042;-72
2021/11/10 13:44:47;;;;;;;19.62;10.95;;;;;;;12.46;64.13;101074.91;2898465;81;20991;-73
2021/11/10 13:49:08;;;;;;;11.35;9.38;;;;;;;12.42;64.21;101075.62;2814455;83;21070;-73
2021/11/10 13:53:22;;;;;;;17.55;11.93;;;;;;;12.30;64.40;101075.25;2804701;83;20975;-72
2021/11/10 13:57:23;;;;;;;16.85;13.00;;;;;;;12.29;64.63;101067.72;2817236;81;21038;-73
2021/11/10 14:01:25;;;;;;;14.78;10.25;;;;;;;12.18;65.22;101082.34;2826763;83;21058;-73
2021/11/10 14:05:27;;;;;;;12.68;9.93;;;;;;;12.12;65.35;101089.86;2819010;81;21038;-74
2021/11/10 14:09:29;;;;;;;21.23;13.95;;;;;;;12.08;65.57;101087.06;2818545;81;20983;-71
2021/11/10 14:13:31;;;;;;;18.85;14.18;;;;;;;11.99;65.93;101091.23;2827018;84;21037;-74
2021/11/10 14:17:46;;;;;;;21.75;14.25;;;;;;;11.92;66.25;101086.48;2819012;82;21066;-72
2021/11/10 14:21:59;;;;;;;23.45;14.43;;;;;;;11.69;67.07;101088.58;2816342;84;21086;-69
2021/11/10 14:26:12;;;;;;;24.00;18.67;;;;;;;11.63;67.23;101089.51;2815880;84;21018;-72
2021/11/10 14:30:18;;;;;;;20.57;13.38;;;;;;;11.61;67.59;101088.78;2816442;84;21009;-71
2021/11/10 14:34:29;;;;;;;26.40;15.83;;;;;;;11.50;68.01;101085.07;2816187;83;21057;-68
2021/11/10 14:38:40;;;;;;;31.87;21.50;;;;;;;11.44;68.20;101094.85;2816592;84;21077;-69
2021/11/10 14:42:44;;;;;;;35.10;19.12;;;;;;;11.38;68.26;101093.95;2812776;82;21058;-71
2021/11/10 14:46:46;;;;;;;50.20;24.27;;;;;;;11.33;68.60;101086.78;2771509;86;21034;-71
2021/11/10 14:50:53;;;;;;;38.60;23.90;;;;;;;11.20;69.85;101094.34;2771716;86;21109;-72
2021/11/10 14:54:55;;;;;;;40.48;25.23;;;;;;;11.07;70.38;101096.16;2770256;85;21491;-71
2021/11/10 14:59:01;;;;;;;46.00;25.35;;;;;;;10.93;70.87;101087.34;2779306;85;21061;-71
2021/11/10 15:03:24;;;;;;;27.40;16.77;;;;;;;10.83;71.12;101090.30;2770478;84;21106;-71
2021/11/10 15:07:30;;;;;;;37.35;23.10;;;;;;;10.85;70.61;101089.70;2811431;81;21045;-70
2021/11/10 15:11:53;;;;;;;37.13;24.52;;;;;;;10.78;71.08;101099.05;2876490;81;20994;-70
2021/11/10 15:16:16;;;;;;;40.28;29.07;;;;;;;10.76;70.98;101094.32;2874503;81;21049;-70
2021/11/10 15:20:21;;;;;;;32.28;22.58;;;;;;;10.73;70.79;101092.75;2866443;83;21010;-70
2021/11/10 15:24:23;;;;;;;59.73;36.90;;;;;;;10.71;71.04;101084.86;2867930;81;21006;-71
2021/11/10 15:28:24;;;;;;;37.35;21.60;;;;;;;10.71;71.21;101092.00;2855345;82;21065;-71
2021/11/10 15:32:27;;;;;;;23.50;16.57;;;;;;;10.65;71.81;101098.59;2866809;82;21084;-70
2021/11/10 15:36:29;;;;;;;21.40;15.75;;;;;;;10.57;72.42;101100.45;2869803;82;21069;-71
2021/11/10 15:40:30;;;;;;;25.35;15.28;;;;;;;10.51;72.78;101103.52;2833144;83;21053;-72
2021/11/10 15:44:39;;;;;;;24.02;17.10;;;;;;;10.41;73.79;101095.81;2871485;82;21562;-71
2021/11/10 15:48:41;;;;;;;31.27;21.05;;;;;;;10.35;73.84;101105.52;2868374;83;21093;-70
2021/11/10 15:52:46;;;;;;;30.08;21.07;;;;;;;10.18;74.95;101101.31;2882809;82;21080;-72
2021/11/10 15:56:50;;;;;;;31.25;20.85;;;;;;;9.99;75.79;101109.19;2883623;82;21013;-71
2021/11/10 16:00:54;;;;;;;25.45;18.50;;;;;;;9.81;75.92;101113.44;2883376;82;21088;-71
2021/11/10 16:04:56;;;;;;;27.95;17.10;;;;;;;9.72;76.20;101116.22;2879240;82;21093;-71
2021/11/10 16:08:58;;;;;;;26.90;17.42;;;;;;;9.62;76.21;101123.55;2883935;82;21033;-71
2021/11/10 16:13:00;;;;;;;33.83;22.48;;;;;;;9.56;76.53;101126.98;2883865;82;21062;-71
2021/11/10 16:17:07;;;;;;;35.52;22.70;;;;;;;9.47;77.01;101126.27;2883667;82;21022;-71
2021/11/10 16:21:09;;;;;;;41.15;26.77;;;;;;;9.34;77.37;101124.00;2873063;82;21045;-71
2021/11/10 16:25:13;;;;;;;30.43;20.68;;;;;;;9.31;77.23;101116.23;2875258;82;21029;-71
2021/11/10 16:29:16;;;;;;;42.55;25.27;;;;;;;9.27;77.52;101121.75;2850867;82;21109;-71
2021/11/10 16:33:19;;;;;;;36.55;26.95;;;;;;;9.17;77.96;101111.80;2873966;83;21069;-72
2021/11/10 16:37:25;;;;;;;39.67;26.97;;;;;;;9.11;78.08;101126.30;2856664;82;20999;-70
2021/11/10 16:41:27;;;;;;;37.33;26.33;;;;;;;9.01;78.02;101132.66;2841316;83;21014;-72
2021/11/10 16:45:29;;;;;;;40.00;24.23;;;;;;;8.91;78.20;101131.05;2858571;82;21092;-71
2021/11/10 16:49:31;;;;;;;41.05;26.85;;;;;;;8.70;78.18;101132.73;2858828;83;21038;-73
2021/11/10 16:53:36;;;;;;;40.17;27.00;;;;;;;8.66;77.89;101138.31;2858691;83;21025;-72
2021/11/10 16:57:44;;;;;;;48.60;29.52;;;;;;;8.50;78.66;101136.57;2848038;82;20979;-71
2021/11/10 17:01:47;;;;;;;47.45;29.27;;;;;;;8.25;79.55;101145.08;2850637;82;21064;-71
2021/11/10 17:05:52;;;;;;;41.08;28.00;;;;;;;8.00;81.45;101138.10;2824904;84;21439;-70
2021/11/10 17:09:56;;;;;;;39.60;24.18;;;;;;;8.00;81.09;101142.53;2848185;82;21009;-71
2021/11/10 17:14:01;;;;;;;38.00;27.65;;;;;;;7.98;81.06;101147.94;2767924;84;21062;-71
2021/11/10 17:18:06;;;;;;;43.33;28.95;;;;;;;7.94;80.60;101146.88;2878565;82;21010;-70
2021/11/10 17:22:09;;;;;;;58.95;32.30;;;;;;;8.00;80.55;101151.81;2878228;82;20947;-71
2021/11/10 17:26:11;;;;;;;46.42;31.20;;;;;;;7.98;79.76;101153.69;2847839;83;21074;-71
2021/11/10 17:30:16;;;;;;;55.65;34.65;;;;;;;7.90;80.20;101148.83;2856461;82;21081;-71
2021/11/10 17:34:19;;;;;;;51.88;35.15;;;;;;;7.91;80.24;101144.40;2830646;84;21061;-71
2021/11/10 17:38:21;;;;;;;50.95;32.23;;;;;;;7.91;81.12;101147.05;2838390;83;21080;-71
2021/11/10 17:42:23;;;;;;;53.92;34.60;;;;;;;7.91;81.12;101144.40;2867771;82;21093;-73
2021/11/10 17:46:25;;;;;;;51.00;30.90;;;;;;;7.84;80.66;101132.80;2884648;82;21096;-71
2021/11/10 17:50:27;;;;;;;44.98;29.37;;;;;;;7.74;80.48;101127.66;2889500;81;21113;-71
2021/11/10 17:54:29;;;;;;;39.83;28.05;;;;;;;7.69;80.39;101130.56;2892907;82;21053;-72
2021/11/10 17:58:30;;;;;;;45.43;30.65;;;;;;;7.65;80.32;101126.84;2864252;82;21091;-73
2021/11/10 18:02:32;;;;;;;45.03;27.15;;;;;;;7.66;80.29;101128.55;2838866;82;21120;-71
2021/11/10 18:06:34;;;;;;;46.25;31.55;;;;;;;7.73;79.97;101124.63;2855543;82;21085;-71
2021/11/10 18:10:35;;;;;;;44.25;31.20;;;;;;;7.81;79.75;101122.39;2891712;82;21092;-72
2021/11/10 18:14:37;;;;;;;63.50;39.38;;;;;;;7.80;79.18;101126.47;2872092;82;21032;-72
2021/11/10 18:18:40;;;;;;;70.35;45.90;;;;;;;7.67;78.63;101127.16;2870671;82;21080;-73
2021/11/10 18:22:44;;;;;;;71.02;43.58;;;;;;;7.58;78.49;101123.22;2892150;82;21269;-71
2021/11/10 18:26:47;;;;;;;68.57;39.33;;;;;;;7.48;77.85;101124.69;2892404;82;21525;-72
2021/11/10 18:30:49;;;;;;;53.33;32.15;;;;;;;7.38;77.73;101124.80;2892541;82;21033;-72
2021/11/10 18:34:50;;;;;;;40.52;28.23;;;;;;;7.33;77.42;101126.85;2891455;82;21085;-73
2021/11/10 18:38:52;;;;;;;43.20;30.90;;;;;;;7.20;77.61;101134.12;2887129;82;21031;-75
2021/11/10 18:42:54;;;;;;;42.40;29.85;;;;;;;7.17;76.99;101124.17;2887791;82;21271;-75
2021/11/10 18:46:56;;;;;;;48.15;30.60;;;;;;;7.04;77.71;101126.62;2885024;82;21051;-72
2021/11/10 18:50:58;;;;;;;49.42;28.87;;;;;;;6.93;78.34;101114.84;2868354;82;21029;-73
2021/11/10 18:55:00;;;;;;;46.75;31.40;;;;;;;6.85;78.44;101107.77;2864850;82;21074;-74
2021/11/10 18:59:08;;;;;;;56.95;33.83;;;;;;;6.80;78.88;101105.39;2875885;82;20994;-73
2021/11/10 19:03:11;;;;;;;42.48;31.77;;;;;;;6.80;79.37;101104.52;2886473;81;21053;-75
2021/11/10 19:15:42;;;;;;;67.82;41.13;;;;;;;6.88;79.88;101107.63;2811577;82;21037;-75